TAF

Looking For Latest

Worst Weather Category
LocationTimeVisiblityCeilingWeatherWind SpeedWind Gust
KLGB231741Z4NONEHaze WNW 10NA NA

  • TAFLGB TAF KLGB 231741Z 2318/2418 VRB03KT 4SM HZ SKC
          FM231900 19008KT P6SM SKC
          FM232300 29010KT P6SM SKC
          FM240500 VRB03KT P6SM SKC
          FM241200 00000KT 3SM BR FEW005 =